Airfield :
LOGIN :

Register | Disclaimer

   EN    FR    IT 

 










Legend :    VFR   Marginal VFR   IFR   Intensive IFR   Very Intensive IFR
Visi :
Ceiling :
>= 8 km
>= 3000ft
5 to 8 km
1000 to 3000 ft
1500m to 5 km
500 to 1000 ft
800 to 1500m
200 to 500 ft
< 800m
< 200 ft
Symbols :   Thunderstorms  Fog  Heavy snow  Heavy precipitations  Wind > 20 kt
SIGMETs :     Misc.  Thunderstorms  Icing  Turbulence  Mountain Waves  Volcanic Ashes






- Airport Elevation : 26 ft
- IATA code : BIA


LFKB - Bastia

CURRENT METAR :
  • 270600Z AUTO 20002KT CAVOK 17/11 Q1028 BECMG 04012KT

EXPIRED METARs :
  • 270530Z AUTO 20003KT 160V220 9999 BKN100 BKN130 16/12 Q1028 BECMG 04012KT
  • 270500Z AUTO 20003KT CAVOK 14/11 Q1028 NOSIG
  • 270430Z AUTO 21003KT 9999 FEW096 BKN110 14/11 Q1028 NOSIG
  • 270400Z AUTO 21004KT 9999 SCT094 SCT110 13/11 Q1028 NOSIG
  • 270330Z AUTO 19004KT 9999 SCT096 14/11 Q1028 NOSIG

TAF TAF LFKB
Valid from the 27 at 03:00 until the 28 at 03:00 UTC


270200Z 2703/2803 20005KT CAVOK TX24/2712Z TN13/2703Z
BECMG 2707/2710 04012KT
BECMG 2717/2720 22005KT
ATIS : +33 4 95 59 19 40



MET'MAP, your aeronautical weather chart ! - Copyright ORBIFLY December 2007 - Disclaimer

ORBIFLY MET'MAP TEAM :

Programming & Development : Alexandra Zaïnal
Concept & original design : Baudouin d'Aumeries
Assistance for programming : Marc-Olivier Méhu
Technical & hardware support : Manuel Goepfert

Contact : metmap@orbifly.com




SOURCES & CREDITS :

   NOAA